Time;durP1;ratioP1;P1;durP2;ratioP2;P2;SDS_P1;SDS_P2;PMS_P1;PMS_P2;Temp;Humidity;BMP_temperature;BMP_pressure;BME280_temperature;BME280_humidity;BME280_pressure;Samples;Min_cycle;Max_cycle;Signal;HPM_P1;HPM_P2
2022/09/03 00:02:39;;;;;;;12.05;4.03;;;;;;;23.07;75.83;100466.97;5098822;27;20035;-91
2022/09/03 00:05:15;;;;;;;9.45;3.60;;;;;;;22.90;75.13;100418.41;5106516;27;20046;-90
2022/09/03 00:08:13;;;;;;;10.70;3.80;;;;;;;23.02;75.75;100423.84;5090828;27;20096;-89
2022/09/03 00:10:45;;;;;;;7.05;3.42;;;;;;;23.10;75.48;100417.94;5041713;27;20047;-90
2022/09/03 00:13:41;;;;;;;10.90;4.07;;;;;;;23.09;75.14;100409.97;5121196;27;20136;-91
2022/09/03 00:16:10;;;;;;;11.00;3.50;;;;;;;23.10;75.04;100414.38;5100533;27;20036;-90
2022/09/03 00:18:40;;;;;;;9.07;3.75;;;;;;;22.81;74.87;100408.94;5071182;27;20039;-89
2022/09/03 00:21:08;;;;;;;10.52;4.30;;;;;;;22.62;75.78;100404.78;5090289;27;20184;-90
2022/09/03 00:23:38;;;;;;;10.30;3.60;;;;;;;22.64;74.05;100427.25;5091517;27;20027;-90
2022/09/03 00:26:12;;;;;;;12.27;3.45;;;;;;;22.62;74.47;100426.69;5084258;28;20483;-90
2022/09/03 00:28:43;;;;;;;14.33;3.77;;;;;;;22.32;73.97;100401.22;5103442;27;20028;-89
2022/09/03 00:31:26;;;;;;;9.05;3.35;;;;;;;22.42;73.93;100407.97;5122549;27;20428;-91
2022/09/03 00:33:58;;;;;;;11.23;3.95;;;;;;;22.36;74.36;100418.00;5081821;27;20031;-90
2022/09/03 00:36:40;;;;;;;9.18;3.70;;;;;;;22.11;74.11;100408.16;5098894;27;20555;-90
2022/09/03 00:39:14;;;;;;;11.05;3.63;;;;;;;22.31;74.38;100448.84;5092307;27;20039;-89
2022/09/03 00:42:06;;;;;;;12.73;4.03;;;;;;;22.36;74.45;100452.75;5105609;27;20145;-90
2022/09/03 00:45:09;;;;;;;12.30;3.85;;;;;;;22.21;74.20;100480.66;5120957;27;20023;-89
2022/09/03 00:48:07;;;;;;;8.20;3.45;;;;;;;22.20;74.82;100478.97;5121819;27;20038;-90
2022/09/03 00:50:59;;;;;;;8.82;3.92;;;;;;;22.27;74.68;100488.75;5096965;27;20056;-89
2022/09/03 00:53:43;;;;;;;8.85;3.78;;;;;;;22.17;75.01;100480.28;5103219;28;20042;-89
2022/09/03 00:56:33;;;;;;;11.73;4.10;;;;;;;22.17;74.52;100501.34;5099829;27;20023;-90
2022/09/03 00:59:11;;;;;;;9.30;3.78;;;;;;;22.24;74.36;100502.06;5087636;27;20319;-88
2022/09/03 01:01:46;;;;;;;10.45;4.00;;;;;;;22.19;74.39;100504.69;5098693;27;20103;-88
2022/09/03 01:04:28;;;;;;;10.38;4.05;;;;;;;22.11;74.42;100493.03;5087243;28;20036;-88
2022/09/03 01:07:17;;;;;;;10.35;4.40;;;;;;;22.16;74.64;100502.44;5088780;28;20122;-88
2022/09/03 01:09:49;;;;;;;8.75;3.88;;;;;;;22.22;73.46;100506.94;5113172;28;20755;-89
2022/09/03 01:12:24;;;;;;;12.23;4.45;;;;;;;22.05;74.14;100493.97;5136326;27;20034;-89
2022/09/03 01:14:55;;;;;;;6.80;3.75;;;;;;;22.08;74.76;100498.16;5105470;28;20118;-89
2022/09/03 01:17:25;;;;;;;5.07;3.75;;;;;;;21.96;74.63;100487.25;5131902;28;20035;-88
2022/09/03 01:19:57;;;;;;;10.07;4.47;;;;;;;21.96;74.69;100484.50;5110440;28;20028;-88
2022/09/03 01:22:57;;;;;;;7.45;4.15;;;;;;;22.02;74.92;100491.75;5091307;28;20175;-89
2022/09/03 01:25:31;;;;;;;10.90;4.00;;;;;;;21.98;74.67;100490.53;5103295;28;20104;-89
2022/09/03 01:28:32;;;;;;;7.03;3.60;;;;;;;21.96;73.93;100478.19;5098818;28;21054;-88
2022/09/03 01:31:25;;;;;;;7.65;4.00;;;;;;;21.95;73.44;100471.88;5101945;28;20027;-89
2022/09/03 01:34:21;;;;;;;11.68;3.40;;;;;;;21.92;73.29;100472.38;5092127;28;20050;-88
2022/09/03 01:36:53;;;;;;;6.25;3.30;;;;;;;21.87;73.14;100450.38;5133143;28;20019;-88
2022/09/03 01:39:44;;;;;;;6.13;3.40;;;;;;;21.71;73.01;100462.88;5104068;28;20031;-87
2022/09/03 01:42:39;;;;;;;6.95;3.40;;;;;;;21.84;73.08;100484.50;5097371;27;21524;-87
2022/09/03 01:45:39;;;;;;;6.32;3.40;;;;;;;21.61;73.12;100447.06;5108626;27;20047;-89
2022/09/03 01:48:12;;;;;;;6.55;3.30;;;;;;;21.65;72.84;100485.72;5107884;27;20455;-88
2022/09/03 01:50:45;;;;;;;3.83;2.80;;;;;;;21.56;72.06;100484.41;5122211;27;20521;-88
2022/09/03 01:53:35;;;;;;;5.97;3.17;;;;;;;21.42;72.92;100475.59;5109320;27;20117;-89
2022/09/03 01:56:14;;;;;;;5.38;2.90;;;;;;;21.37;72.71;100468.06;5130128;27;20407;-88
2022/09/03 01:59:20;;;;;;;4.80;2.25;;;;;;;21.19;72.90;100452.63;5107702;28;20031;-88
2022/09/03 02:01:53;;;;;;;4.18;2.60;;;;;;;20.96;72.83;100419.78;5084081;27;20421;-87
2022/09/03 02:04:22;;;;;;;3.97;2.22;;;;;;;21.10;72.63;100448.56;5106372;27;20043;-88
2022/09/03 02:06:51;;;;;;;5.50;2.65;;;;;;;20.96;72.63;100441.66;5103272;27;20031;-89
2022/09/03 02:09:17;;;;;;;3.80;2.30;;;;;;;20.75;73.39;100432.94;5110831;27;20106;-87
2022/09/03 02:11:45;;;;;;;3.50;2.60;;;;;;;20.68;73.73;100439.56;5096528;27;20113;-87
2022/09/03 02:14:13;;;;;;;5.93;3.00;;;;;;;20.52;74.77;100436.38;5096332;27;20027;-86
2022/09/03 02:16:40;;;;;;;4.00;2.90;;;;;;;20.47;74.66;100427.25;5083441;27;20035;-87
2022/09/03 02:19:12;;;;;;;3.90;3.10;;;;;;;20.40;75.22;100436.34;5112753;27;20031;-86
2022/09/03 02:21:40;;;;;;;5.50;3.17;;;;;;;20.51;75.82;100453.00;5125606;27;20032;-86
2022/09/03 02:24:07;;;;;;;4.40;3.20;;;;;;;20.45;76.12;100482.91;5112163;27;20030;-88
2022/09/03 02:26:34;;;;;;;5.18;3.08;;;;;;;20.45;76.03;100482.06;5081831;27;20411;-88
2022/09/03 02:29:02;;;;;;;4.65;3.22;;;;;;;20.43;75.62;100486.91;5099926;27;20032;-89
2022/09/03 02:31:27;;;;;;;5.63;3.10;;;;;;;20.62;75.41;100506.88;5090181;27;20039;-87
2022/09/03 02:33:53;;;;;;;5.22;2.92;;;;;;;20.38;75.55;100495.81;5112033;27;20055;-87
2022/09/03 02:36:20;;;;;;;5.10;3.38;;;;;;;20.48;76.41;100513.53;5091910;27;20089;-86
2022/09/03 02:38:51;;;;;;;5.35;3.38;;;;;;;20.35;75.27;100507.19;5128874;27;20473;-86
2022/09/03 02:41:33;;;;;;;5.47;3.60;;;;;;;20.17;76.15;100510.75;5098966;27;20509;-87
2022/09/03 02:44:13;;;;;;;5.57;3.60;;;;;;;20.17;76.56;100516.22;5092513;27;20031;-87
2022/09/03 02:46:45;;;;;;;7.70;3.85;;;;;;;20.31;76.47;100525.09;5109644;27;20026;-87
2022/09/03 02:49:13;;;;;;;11.15;4.60;;;;;;;20.26;75.59;100524.94;5093200;27;20055;-86
2022/09/03 02:51:40;;;;;;;7.32;4.50;;;;;;;19.88;75.57;100473.31;5124107;27;20031;-86
2022/09/03 02:54:06;;;;;;;8.00;4.35;;;;;;;19.97;75.69;100505.53;5146617;27;20043;-87
2022/09/03 02:56:36;;;;;;;9.98;4.60;;;;;;;19.85;75.97;100512.78;5117154;27;20055;-87
2022/09/03 02:59:04;;;;;;;8.10;4.38;;;;;;;19.91;75.54;100508.34;5111750;27;20023;-87
2022/09/03 03:01:30;;;;;;;8.35;4.50;;;;;;;19.86;75.15;100513.63;5127534;27;20168;-87
2022/09/03 03:04:00;;;;;;;6.50;4.28;;;;;;;19.91;74.67;100521.97;5105909;27;20493;-87
2022/09/03 03:06:25;;;;;;;8.60;4.30;;;;;;;19.69;74.65;100497.00;5128767;27;20050;-87
2022/09/03 03:08:55;;;;;;;6.55;4.07;;;;;;;19.53;74.71;100479.31;5122683;27;20076;-86
2022/09/03 03:11:24;;;;;;;5.35;3.80;;;;;;;19.47;74.79;100489.22;5129448;27;20032;-87
2022/09/03 03:13:50;;;;;;;8.82;4.15;;;;;;;19.42;75.47;100513.59;5130200;27;20474;-88
2022/09/03 03:16:16;;;;;;;11.10;5.32;;;;;;;19.33;75.88;100496.66;5108579;27;20054;-86
2022/09/03 03:18:45;;;;;;;8.30;4.75;;;;;;;19.29;76.68;100505.50;5125986;27;20455;-87
2022/09/03 03:21:12;;;;;;;8.60;4.35;;;;;;;19.29;76.96;100486.44;5089852;27;20038;-87
2022/09/03 03:23:41;;;;;;;9.77;4.65;;;;;;;19.49;76.35;100487.09;5106659;27;20342;-87
2022/09/03 03:26:12;;;;;;;7.43;4.20;;;;;;;19.60;76.06;100510.91;5104589;27;20024;-88
2022/09/03 03:28:41;;;;;;;7.97;4.53;;;;;;;19.57;75.63;100500.47;5102554;27;20035;-86
2022/09/03 03:31:08;;;;;;;7.97;4.18;;;;;;;19.48;76.31;100496.34;5108960;27;20019;-87
2022/09/03 03:33:35;;;;;;;6.60;4.20;;;;;;;19.32;76.20;100465.03;5108174;27;20088;-87
2022/09/03 03:36:10;;;;;;;11.35;4.28;;;;;;;19.53;75.83;100490.22;5082884;27;20047;-86
2022/09/03 03:38:37;;;;;;;7.20;3.92;;;;;;;19.33;75.47;100472.13;5127773;27;20382;-87
2022/09/03 03:41:08;;;;;;;8.27;3.83;;;;;;;19.61;74.99;100515.28;5088490;27;20034;-87
2022/09/03 03:43:38;;;;;;;7.75;3.42;;;;;;;19.63;74.10;100493.25;5107656;27;20035;-87
2022/09/03 03:46:06;;;;;;;7.28;3.88;;;;;;;19.75;74.09;100528.84;5086264;27;20110;-86
2022/09/03 03:48:33;;;;;;;6.30;3.65;;;;;;;19.61;73.73;100500.84;5110049;27;20074;-86
2022/09/03 03:51:03;;;;;;;5.00;3.38;;;;;;;19.48;74.45;100499.06;5112861;27;20035;-85
2022/09/03 03:53:37;;;;;;;6.72;3.70;;;;;;;19.55;74.88;100518.94;5102536;27;20498;-86
2022/09/03 03:56:05;;;;;;;6.72;3.55;;;;;;;19.51;74.85;100523.16;5126993;27;20027;-85
2022/09/03 03:58:32;;;;;;;5.88;3.55;;;;;;;19.37;74.73;100495.16;5109812;27;20039;-85
2022/09/03 04:01:11;;;;;;;6.78;3.53;;;;;;;19.54;74.67;100525.44;5112091;27;20530;-85
2022/09/03 04:03:40;;;;;;;5.95;3.53;;;;;;;19.60;74.62;100540.06;5105596;28;20339;-86
2022/09/03 04:06:07;;;;;;;5.65;3.42;;;;;;;19.63;74.52;100526.00;5107425;27;20062;-86
2022/09/03 04:08:35;;;;;;;4.22;3.17;;;;;;;19.71;74.18;100524.88;5091593;27;20043;-86
2022/09/03 04:11:01;;;;;;;6.00;3.40;;;;;;;19.74;74.32;100527.19;5116126;27;20628;-86
2022/09/03 04:13:36;;;;;;;7.22;3.70;;;;;;;19.75;74.62;100550.66;5093990;28;20031;-86
2022/09/03 04:16:12;;;;;;;6.75;3.80;;;;;;;19.76;75.02;100553.19;5119006;27;20099;-85
2022/09/03 04:18:43;;;;;;;7.03;4.20;;;;;;;19.63;74.76;100552.44;5098692;27;20055;-86
2022/09/03 04:21:11;;;;;;;7.53;4.10;;;;;;;19.56;74.72;100544.31;5089807;27;20031;-86
2022/09/03 04:23:41;;;;;;;8.75;3.90;;;;;;;19.89;73.94;100578.66;5110777;27;20399;-86
2022/09/03 04:26:13;;;;;;;5.75;4.15;;;;;;;19.82;74.28;100585.00;5090272;28;20112;-86
2022/09/03 04:28:44;;;;;;;11.45;3.92;;;;;;;19.83;73.93;100577.66;5125644;27;20024;-86
2022/09/03 04:31:11;;;;;;;8.57;4.20;;;;;;;19.92;73.76;100587.22;5112452;27;20417;-85
2022/09/03 04:33:37;;;;;;;6.43;3.92;;;;;;;19.96;73.41;100588.44;5111151;27;20535;-86
2022/09/03 04:36:09;;;;;;;8.02;4.07;;;;;;;19.98;73.70;100610.06;5099737;28;20054;-85
2022/09/03 04:38:37;;;;;;;12.68;4.30;;;;;;;19.85;73.72;100577.44;5115530;27;20031;-84
2022/09/03 04:41:03;;;;;;;14.65;4.13;;;;;;;20.09;73.57;100592.94;5135338;27;20138;-84
2022/09/03 04:43:32;;;;;;;8.82;4.07;;;;;;;19.95;73.94;100564.13;5092122;27;20034;-85
2022/09/03 04:45:58;;;;;;;5.68;3.67;;;;;;;20.24;72.93;100587.13;5098611;27;20027;-85
2022/09/03 04:48:26;;;;;;;9.48;3.95;;;;;;;20.17;72.79;100578.16;5120872;27;20031;-86
2022/09/03 04:50:52;;;;;;;7.03;4.00;;;;;;;20.25;72.25;100588.75;5123093;27;20027;-87
2022/09/03 04:53:18;;;;;;;6.28;3.83;;;;;;;20.20;72.24;100580.44;5107542;27;20031;-85
2022/09/03 04:55:43;;;;;;;6.03;3.90;;;;;;;20.47;71.78;100588.34;5105289;27;20058;-86
2022/09/03 04:58:14;;;;;;;10.65;4.15;;;;;;;20.30;71.46;100591.69;5110578;27;20078;-86
2022/09/03 05:00:41;;;;;;;7.07;4.25;;;;;;;20.43;71.07;100596.97;5109655;27;20122;-87
2022/09/03 05:03:08;;;;;;;8.68;4.30;;;;;;;20.27;70.98;100564.81;5110123;28;20139;-87
2022/09/03 05:05:34;;;;;;;7.90;4.30;;;;;;;20.57;70.77;100602.31;5129888;27;20085;-87
2022/09/03 05:08:01;;;;;;;7.28;4.60;;;;;;;20.47;69.99;100597.38;5102248;27;20134;-87
2022/09/03 05:10:29;;;;;;;7.22;4.50;;;;;;;20.17;69.96;100573.53;5111465;27;20087;-88
2022/09/03 05:13:02;;;;;;;9.27;4.05;;;;;;;20.53;69.36;100606.53;5105323;28;20060;-87
2022/09/03 05:15:28;;;;;;;9.02;4.47;;;;;;;20.38;69.73;100612.38;5103766;27;20043;-86
2022/09/03 05:18:03;;;;;;;7.97;4.70;;;;;;;20.31;69.83;100614.34;5088422;28;20035;-87
2022/09/03 05:20:31;;;;;;;7.85;4.30;;;;;;;20.51;69.32;100627.75;5120110;28;20019;-87
2022/09/03 05:23:06;;;;;;;6.22;4.20;;;;;;;20.37;68.77;100613.41;5118396;28;20126;-86
2022/09/03 05:25:33;;;;;;;11.55;4.70;;;;;;;20.51;68.71;100625.03;5107950;28;20023;-86
2022/09/03 05:28:00;;;;;;;6.07;4.38;;;;;;;20.21;68.61;100599.31;5092666;28;20431;-85
2022/09/03 05:30:27;;;;;;;6.55;4.13;;;;;;;20.53;68.30;100621.00;5122748;28;20035;-85
2022/09/03 05:32:54;;;;;;;9.95;4.72;;;;;;;20.47;68.46;100599.25;5108309;28;20035;-86
2022/09/03 05:35:21;;;;;;;7.97;5.00;;;;;;;20.77;67.41;100611.09;5120651;28;20136;-86
2022/09/03 05:37:47;;;;;;;8.75;5.13;;;;;;;20.90;66.77;100581.94;5093183;28;20436;-86
2022/09/03 05:40:12;;;;;;;7.30;5.38;;;;;;;21.29;65.82;100638.78;5112207;28;20117;-86
2022/09/03 05:42:39;;;;;;;12.50;5.82;;;;;;;21.32;66.17;100629.28;5129538;28;20032;-86
2022/09/03 05:45:12;;;;;;;11.75;5.70;;;;;;;21.13;65.03;100603.88;5121569;28;20076;-86
2022/09/03 05:47:40;;;;;;;13.77;5.90;;;;;;;21.44;64.25;100608.28;5099778;28;20031;-84
2022/09/03 05:50:10;;;;;;;12.13;6.07;;;;;;;21.59;64.07;100634.41;5128570;28;20058;-85
2022/09/03 05:52:40;;;;;;;10.85;5.72;;;;;;;21.84;63.61;100639.66;5095416;28;20054;-84
2022/09/03 05:55:07;;;;;;;11.52;6.13;;;;;;;21.79;62.77;100631.31;5126178;28;20043;-85
2022/09/03 05:57:35;;;;;;;11.10;6.50;;;;;;;22.08;62.35;100648.75;5069446;28;20032;-85
2022/09/03 06:00:03;;;;;;;10.48;6.32;;;;;;;22.07;61.83;100620.50;5106491;28;20023;-87
2022/09/03 06:02:31;;;;;;;10.63;6.80;;;;;;;22.16;61.90;100636.59;5106259;28;20104;-87
2022/09/03 06:05:01;;;;;;;11.82;6.30;;;;;;;22.25;61.48;100635.19;5104251;28;20051;-87
2022/09/03 06:07:30;;;;;;;11.55;6.70;;;;;;;22.13;61.12;100627.78;5106261;28;20044;-90
2022/09/03 06:09:55;;;;;;;17.23;7.22;;;;;;;21.86;61.14;100629.31;5102854;28;20028;-87
2022/09/03 06:12:22;;;;;;;10.88;6.72;;;;;;;21.53;61.90;100617.00;5095749;28;20117;-85
2022/09/03 06:14:47;;;;;;;13.70;7.80;;;;;;;21.59;62.21;100640.69;5098034;28;20150;-86
2022/09/03 06:17:13;;;;;;;11.25;7.53;;;;;;;21.23;62.75;100627.94;5088167;28;20103;-85
2022/09/03 06:19:39;;;;;;;10.32;7.07;;;;;;;21.29;63.32;100651.63;5094034;28;20482;-84
2022/09/03 06:22:08;;;;;;;12.02;7.40;;;;;;;21.34;63.04;100656.41;5097195;28;20035;-82
2022/09/03 06:24:33;;;;;;;11.25;7.28;;;;;;;21.46;62.74;100643.63;5089566;28;20042;-85
2022/09/03 06:27:00;;;;;;;12.70;8.32;;;;;;;21.75;61.29;100663.81;5067969;28;20044;-87
2022/09/03 06:29:26;;;;;;;19.38;8.57;;;;;;;21.83;61.41;100677.13;5107147;28;20530;-89
2022/09/03 06:31:52;;;;;;;18.67;8.43;;;;;;;21.62;61.57;100659.38;5092218;28;20047;-87
2022/09/03 06:34:18;;;;;;;11.30;7.80;;;;;;;21.62;61.69;100662.09;5108761;28;20450;-89
2022/09/03 06:36:50;;;;;;;16.02;6.97;;;;;;;22.30;60.47;100670.91;5086205;28;20032;-89
2022/09/03 06:39:16;;;;;;;12.80;7.25;;;;;;;22.44;59.04;100652.31;5100791;28;20023;-86
2022/09/03 06:41:44;;;;;;;10.73;7.38;;;;;;;22.86;58.65;100669.41;5091447;28;20116;-86
2022/09/03 06:44:11;;;;;;;11.98;7.10;;;;;;;22.89;58.20;100657.94;5102465;28;20480;-88
2022/09/03 06:46:41;;;;;;;13.60;7.22;;;;;;;23.00;57.58;100641.75;5106652;28;20015;-86
2022/09/03 06:49:07;;;;;;;13.57;7.43;;;;;;;23.65;56.39;100671.50;5106473;28;20044;-86
2022/09/03 06:51:33;;;;;;;11.18;7.07;;;;;;;24.12;54.92;100648.41;5090685;28;20031;-87
2022/09/03 06:54:09;;;;;;;16.83;7.47;;;;;;;24.30;54.35;100683.00;5104434;28;20403;-87
2022/09/03 06:56:38;;;;;;;13.05;7.50;;;;;;;24.22;53.96;100671.34;5097566;27;20135;-86
2022/09/03 06:59:10;;;;;;;14.65;6.97;;;;;;;24.26;53.34;100660.72;5083124;27;20123;-89
2022/09/03 07:01:40;;;;;;;11.50;7.03;;;;;;;24.48;53.42;100676.44;5115849;27;20031;-88
2022/09/03 07:04:07;;;;;;;11.15;7.00;;;;;;;25.31;51.17;100655.25;5113490;27;20039;-87
2022/09/03 07:06:39;;;;;;;15.63;7.05;;;;;;;25.41;50.64;100677.34;5108770;27;20517;-87
2022/09/03 07:09:05;;;;;;;10.15;7.13;;;;;;;24.96;51.47;100667.47;5132053;27;20062;-86
2022/09/03 07:11:54;;;;;;;10.27;6.65;;;;;;;24.90;51.30;100662.16;5084764;28;20522;-94
2022/09/03 07:14:23;;;;;;;10.73;7.07;;;;;;;24.84;52.25;100700.59;5100505;27;20057;-87
2022/09/03 07:16:52;;;;;;;16.17;7.32;;;;;;;24.59;52.99;100701.06;5094003;28;20101;-89
2022/09/03 07:19:18;;;;;;;13.82;7.40;;;;;;;24.00;53.82;100709.75;5097952;27;20035;-89
2022/09/03 07:21:53;;;;;;;11.73;7.45;;;;;;;23.91;53.51;100693.94;5100365;28;20036;-90
2022/09/03 07:24:20;;;;;;;12.32;6.85;;;;;;;23.91;53.76;100681.03;5096596;27;20035;-91
2022/09/03 07:26:47;;;;;;;11.05;6.80;;;;;;;23.78;53.94;100682.16;5132314;27;20126;-87
2022/09/03 07:29:15;;;;;;;11.43;7.03;;;;;;;23.86;54.54;100713.03;5132369;27;20100;-89
2022/09/03 07:31:45;;;;;;;12.32;7.00;;;;;;;23.97;54.24;100712.13;5081300;27;20523;-90
2022/09/03 07:34:11;;;;;;;10.00;7.00;;;;;;;23.75;54.04;100679.09;5077604;27;20073;-89
2022/09/03 07:36:41;;;;;;;14.38;7.43;;;;;;;23.65;54.34;100714.56;5093521;27;20125;-86
2022/09/03 07:39:07;;;;;;;15.82;7.68;;;;;;;23.14;55.69;100714.41;5111907;27;20169;-87
2022/09/03 07:41:36;;;;;;;12.55;7.82;;;;;;;23.17;55.28;100711.19;5113477;27;20039;-87
2022/09/03 07:44:04;;;;;;;13.38;8.70;;;;;;;23.15;55.69;100716.06;5133254;27;20141;-86
2022/09/03 07:46:36;;;;;;;14.68;8.25;;;;;;;23.42;55.17;100740.22;5097474;27;20031;-91
2022/09/03 07:49:02;;;;;;;16.15;8.05;;;;;;;22.93;56.19;100730.41;5111902;27;20035;-88
2022/09/03 07:51:37;;;;;;;11.40;8.00;;;;;;;22.81;56.78;100737.81;5113670;27;20094;-90
2022/09/03 07:54:09;;;;;;;14.43;8.60;;;;;;;22.63;57.17;100729.72;5113763;27;20027;-85
2022/09/03 07:56:40;;;;;;;18.55;8.15;;;;;;;22.86;56.70;100742.56;5125460;27;20047;-90
2022/09/03 07:59:10;;;;;;;12.95;8.20;;;;;;;22.24;57.81;100708.31;5093204;27;20120;-88
2022/09/03 08:01:36;;;;;;;10.98;7.80;;;;;;;22.37;57.95;100736.53;5107673;27;20076;-91
2022/09/03 08:04:05;;;;;;;16.25;8.32;;;;;;;22.86;56.25;100726.97;5099128;27;20035;-87
2022/09/03 08:06:34;;;;;;;13.25;8.25;;;;;;;23.65;53.71;100715.41;5098525;27;20108;-90
2022/09/03 08:09:05;;;;;;;15.43;7.95;;;;;;;23.83;53.08;100694.31;5082574;27;20023;-87
2022/09/03 08:11:38;;;;;;;13.43;8.15;;;;;;;24.20;52.16;100717.47;5140087;27;20031;-87
2022/09/03 08:14:15;;;;;;;10.73;8.05;;;;;;;24.53;51.14;100707.56;5120738;27;20103;-86
2022/09/03 08:16:42;;;;;;;10.95;7.53;;;;;;;25.05;50.49;100707.19;5093954;28;20078;-86
2022/09/03 08:19:10;;;;;;;13.52;7.18;;;;;;;25.98;48.16;100698.00;5087220;27;20049;-89
2022/09/03 08:21:37;;;;;;;10.10;7.32;;;;;;;27.57;43.97;100696.09;5112534;27;20498;-90
2022/09/03 08:24:02;;;;;;;12.20;7.20;;;;;;;28.66;41.52;100701.38;5078495;27;20035;-90
2022/09/03 08:26:36;;;;;;;9.93;6.97;;;;;;;29.41;39.50;100695.00;5086015;28;20035;-88
2022/09/03 08:29:04;;;;;;;9.45;6.75;;;;;;;28.83;40.63;100701.03;5107409;27;20063;-88
2022/09/03 08:31:35;;;;;;;7.85;6.82;;;;;;;29.82;38.13;100683.63;5118431;27;20130;-91
2022/09/03 08:34:05;;;;;;;14.15;6.68;;;;;;;30.63;37.43;100712.56;5128727;27;20043;-88
2022/09/03 08:36:36;;;;;;;8.50;6.65;;;;;;;32.03;34.36;100704.91;5133992;27;20029;-88
2022/09/03 08:39:08;;;;;;;8.27;6.38;;;;;;;31.96;34.08;100704.47;5148726;27;20031;-87
2022/09/03 08:41:52;;;;;;;10.63;6.47;;;;;;;32.33;33.63;100722.16;5128378;27;20014;-88
2022/09/03 08:44:34;;;;;;;9.93;6.20;;;;;;;31.09;35.49;100706.50;5117228;27;20090;-87
2022/09/03 08:47:30;;;;;;;6.38;5.70;;;;;;;30.67;36.46;100715.56;5098014;27;20517;-90
2022/09/03 08:50:13;;;;;;;9.77;5.40;;;;;;;30.22;37.33;100714.91;5117430;27;20487;-90
2022/09/03 08:53:01;;;;;;;9.02;5.88;;;;;;;28.49;40.36;100740.38;5106246;27;20040;-84
2022/09/03 08:55:41;;;;;;;8.52;6.22;;;;;;;28.19;41.20;100738.47;5093292;27;20139;-84
2022/09/03 08:58:21;;;;;;;7.75;5.85;;;;;;;27.14;43.92;100739.56;5112469;27;20146;-91
2022/09/03 09:01:00;;;;;;;8.50;6.30;;;;;;;26.38;45.22;100717.88;5110763;27;20031;-86
2022/09/03 09:03:42;;;;;;;7.15;5.72;;;;;;;26.56;45.52;100731.25;5127278;27;20075;-85
2022/09/03 09:06:22;;;;;;;9.90;6.30;;;;;;;26.76;45.50;100729.72;5110477;28;20033;-85
2022/09/03 09:09:07;;;;;;;9.13;6.10;;;;;;;29.04;40.54;100732.22;5128107;27;20050;-88
2022/09/03 09:12:01;;;;;;;6.85;5.68;;;;;;;31.30;35.68;100729.28;5129980;27;20111;-85
2022/09/03 09:14:34;;;;;;;6.95;5.40;;;;;;;32.27;33.92;100723.41;5125902;28;20031;-85
2022/09/03 09:17:02;;;;;;;6.20;5.57;;;;;;;33.38;31.92;100747.38;5128385;28;20027;-86
2022/09/03 09:19:37;;;;;;;8.13;5.93;;;;;;;34.28;30.48;100737.50;5129022;28;20058;-86
2022/09/03 09:22:09;;;;;;;;;;;;;;;35.80;28.24;100739.03;5125652;28;20089;-84
2022/09/03 09:24:44;;;;;;;9.90;5.70;;;;;;;37.06;26.24;100739.69;5107025;28;19915;-85
2022/09/03 09:27:09;;;;;;;8.43;5.22;;;;;;;37.44;25.49;100734.06;5073002;28;20471;-86
2022/09/03 09:29:37;;;;;;;6.22;4.90;;;;;;;37.72;24.99;100739.13;5071159;28;20043;-84
2022/09/03 09:32:05;;;;;;;7.97;5.30;;;;;;;37.41;25.48;100723.50;5092539;28;20032;-84
2022/09/03 09:34:36;;;;;;;5.80;5.10;;;;;;;37.10;26.20;100755.53;5114404;28;20407;-84
2022/09/03 09:37:04;;;;;;;6.55;5.47;;;;;;;37.05;26.14;100749.28;5106138;28;20027;-84
2022/09/03 09:39:31;;;;;;;6.53;5.20;;;;;;;38.25;24.32;100740.28;5110966;28;20050;-83
2022/09/03 09:42:04;;;;;;;6.38;5.15;;;;;;;38.16;24.53;100765.63;5100885;28;20028;-82
2022/09/03 09:44:33;;;;;;;7.35;5.30;;;;;;;38.43;24.27;100754.97;5069711;28;20473;-88
2022/09/03 09:47:10;;;;;;;7.85;5.30;;;;;;;37.69;24.85;100753.84;5104595;28;20027;-84
2022/09/03 09:49:59;;;;;;;5.80;4.95;;;;;;;38.54;24.09;100744.97;5105389;28;20035;-85
2022/09/03 09:52:28;;;;;;;8.85;4.75;;;;;;;35.60;27.94;100763.66;5097487;28;20046;-86
2022/09/03 09:55:06;;;;;;;7.18;4.70;;;;;;;33.95;30.13;100754.47;5115260;28;20344;-85
2022/09/03 09:57:33;;;;;;;6.65;4.50;;;;;;;32.61;32.33;100744.50;5096065;28;20073;-85
2022/09/03 10:00:20;;;;;;;5.90;4.50;;;;;;;33.16;31.31;100738.97;5089312;28;20106;-84
2022/09/03 10:02:50;;;;;;;5.43;4.65;;;;;;;32.77;32.40;100754.22;5132297;27;20023;-84
2022/09/03 10:05:31;;;;;;;8.63;4.75;;;;;;;32.21;33.23;100758.81;5090511;28;20024;-85
2022/09/03 10:08:05;;;;;;;12.95;5.05;;;;;;;30.97;34.70;100747.72;5119655;27;20035;-86
2022/09/03 10:10:37;;;;;;;6.13;4.85;;;;;;;30.20;36.40;100731.00;5126779;27;20118;-85
2022/09/03 10:13:20;;;;;;;6.80;5.00;;;;;;;30.65;35.66;100749.19;5080714;28;20116;-85
2022/09/03 10:16:07;;;;;;;7.28;4.65;;;;;;;32.64;32.70;100760.56;5118289;27;20039;-85
2022/09/03 10:18:40;;;;;;;7.15;4.60;;;;;;;30.82;35.07;100762.59;5113630;27;20377;-86
2022/09/03 10:21:11;;;;;;;7.00;4.50;;;;;;;31.48;33.95;100771.28;5094101;27;20042;-85
2022/09/03 10:24:21;;;;;;;5.95;4.90;;;;;;;33.39;31.15;100776.09;5123919;27;20059;-84
2022/09/03 10:26:47;;;;;;;11.25;4.50;;;;;;;35.04;28.49;100779.28;5104668;27;20051;-85
2022/09/03 10:29:21;;;;;;;7.30;4.60;;;;;;;35.24;27.84;100773.16;5088614;27;20031;-85
2022/09/03 10:32:05;;;;;;;6.97;4.57;;;;;;;33.95;29.26;100766.47;5125735;27;20023;-88
2022/09/03 10:34:37;;;;;;;5.85;4.78;;;;;;;33.14;30.46;100786.63;5101999;27;20120;-85
2022/09/03 10:37:18;;;;;;;6.50;4.72;;;;;;;32.00;32.58;100791.66;5098336;27;20505;-85
2022/09/03 10:40:19;;;;;;;5.75;4.30;;;;;;;33.15;31.00;100796.63;5115549;27;20035;-86
2022/09/03 10:43:16;;;;;;;5.97;4.13;;;;;;;33.62;30.42;100791.78;5130379;27;20407;-86
2022/09/03 10:45:50;;;;;;;6.78;4.20;;;;;;;32.33;32.33;100794.47;5091302;27;20048;-86
2022/09/03 10:48:46;;;;;;;7.60;4.85;;;;;;;31.65;32.83;100793.81;5125937;27;20031;-88
2022/09/03 10:51:14;;;;;;;6.57;4.80;;;;;;;31.02;34.38;100791.25;5104458;27;21166;-84
2022/09/03 10:54:13;;;;;;;7.93;4.85;;;;;;;30.86;34.64;100791.44;5104411;27;20550;-86
2022/09/03 10:57:02;;;;;;;5.28;4.72;;;;;;;30.33;35.68;100799.69;5129162;27;20035;-84
2022/09/03 10:59:41;;;;;;;7.07;5.00;;;;;;;28.75;38.66;100803.97;5077245;27;20380;-85
2022/09/03 11:02:36;;;;;;;7.30;4.63;;;;;;;28.61;39.08;100807.31;5091880;27;20039;-84
2022/09/03 11:05:09;;;;;;;5.40;4.32;;;;;;;28.14;40.35;100822.22;5097485;28;20559;-84
2022/09/03 11:07:37;;;;;;;6.28;4.78;;;;;;;28.52;39.04;100808.97;5114370;27;20498;-84
2022/09/03 11:10:26;;;;;;;6.78;4.55;;;;;;;29.19;38.11;100820.75;5116340;27;20034;-84
2022/09/03 11:13:03;;;;;;;6.18;4.72;;;;;;;29.97;36.58;100813.78;5113211;28;20027;-84
2022/09/03 11:15:53;;;;;;;6.60;4.45;;;;;;;29.88;36.62;100832.13;5096702;27;20115;-84
2022/09/03 11:18:29;;;;;;;6.75;4.40;;;;;;;29.69;36.74;100822.81;5126148;27;20482;-83
2022/09/03 11:20:59;;;;;;;6.78;4.43;;;;;;;29.90;36.83;100817.97;5114874;27;20575;-81
2022/09/03 11:23:25;;;;;;;8.93;4.90;;;;;;;30.08;35.98;100801.50;5110178;27;20043;-83
2022/09/03 11:25:53;;;;;;;7.07;4.38;;;;;;;30.12;35.97;100809.25;5105200;27;20119;-84
2022/09/03 11:28:37;;;;;;;6.53;4.45;;;;;;;30.33;35.64;100827.41;5079596;27;20474;-85
2022/09/03 11:31:12;;;;;;;6.90;4.50;;;;;;;29.85;36.52;100818.84;5130283;27;20311;-84
2022/09/03 11:33:40;;;;;;;6.90;4.38;;;;;;;29.57;36.98;100820.34;5085141;27;20032;-84
2022/09/03 11:36:06;;;;;;;6.80;4.50;;;;;;;29.07;37.71;100809.19;5096379;27;20129;-84
2022/09/03 11:38:33;;;;;;;5.45;4.15;;;;;;;29.53;37.45;100820.09;5095220;27;20525;-84
2022/09/03 11:41:14;;;;;;;9.95;4.50;;;;;;;29.29;37.54;100816.31;5099482;28;20103;-88
2022/09/03 11:43:41;;;;;;;5.68;4.30;;;;;;;29.57;36.66;100815.66;5075029;27;20046;-87
2022/09/03 11:46:25;;;;;;;7.93;4.25;;;;;;;28.59;38.11;100797.63;5123185;27;20035;-87
2022/09/03 11:48:56;;;;;;;6.18;4.35;;;;;;;27.98;39.84;100802.00;5107520;27;20027;-85
2022/09/03 11:51:40;;;;;;;6.15;4.78;;;;;;;27.40;40.98;100789.38;5093549;28;20081;-87